Time;durP1;ratioP1;P1;durP2;ratioP2;P2;SDS_P1;SDS_P2;PMS_P1;PMS_P2;Temp;Humidity;BMP_temperature;BMP_pressure;BME280_temperature;BME280_humidity;BME280_pressure;Samples;Min_cycle;Max_cycle;Signal;HPM_P1;HPM_P2
2021/07/06 00:01:08;;;;;;;4.82;0.93;;;19.80;71.80;;;;;;5104267;28;27323;-57
2021/07/06 00:03:53;;;;;;;1.05;0.98;;;19.70;71.80;;;;;;5103295;28;27395;-57
2021/07/06 00:06:38;;;;;;;1.88;1.52;;;19.70;71.80;;;;;;5100246;28;27402;-57
2021/07/06 00:09:23;;;;;;;1.65;0.98;;;19.70;71.90;;;;;;5104369;28;27332;-57
2021/07/06 00:12:07;;;;;;;3.08;1.05;;;19.70;72.00;;;;;;5103002;28;27355;-57
2021/07/06 00:14:53;;;;;;;1.80;0.90;;;19.70;72.00;;;;;;5085838;28;27402;-57
2021/07/06 00:17:38;;;;;;;2.13;0.75;;;19.60;71.90;;;;;;5103956;28;27406;-55
2021/07/06 00:20:26;;;;;;;2.90;0.95;;;19.60;71.80;;;;;;5103273;28;27441;-57
2021/07/06 00:23:10;;;;;;;3.78;1.15;;;19.60;71.80;;;;;;5103130;28;27349;-57
2021/07/06 00:25:55;;;;;;;1.80;1.15;;;19.60;71.80;;;;;;5103937;28;27869;-57
2021/07/06 00:28:40;;;;;;;4.32;1.15;;;19.60;71.80;;;;;;5103048;28;27395;-57
2021/07/06 00:31:24;;;;;;;2.15;0.98;;;19.50;71.80;;;;;;5103922;28;27387;-56
2021/07/06 00:34:09;;;;;;;2.28;1.10;;;19.50;71.70;;;;;;5100449;28;27413;-56
2021/07/06 00:36:54;;;;;;;5.00;1.20;;;19.50;71.80;;;;;;5102782;28;27371;-56
2021/07/06 00:39:39;;;;;;;4.30;1.10;;;19.50;71.90;;;;;;5100852;28;27383;-56
2021/07/06 00:42:23;;;;;;;7.30;1.20;;;19.40;71.80;;;;;;5102756;28;27362;-56
2021/07/06 00:45:10;;;;;;;3.35;1.25;;;19.40;71.90;;;;;;5103713;28;27401;-55
2021/07/06 00:47:54;;;;;;;1.25;0.95;;;19.40;72.00;;;;;;5102740;28;27405;-56
2021/07/06 00:50:39;;;;;;;4.43;1.02;;;19.40;71.90;;;;;;5088643;28;27368;-56
2021/07/06 00:53:24;;;;;;;1.50;1.00;;;19.30;72.00;;;;;;5088556;28;27409;-56
2021/07/06 00:56:09;;;;;;;5.72;0.93;;;19.40;72.10;;;;;;5103456;28;27383;-56
2021/07/06 00:58:53;;;;;;;3.08;1.13;;;19.30;72.00;;;;;;5103589;28;27328;-57
2021/07/06 01:01:38;;;;;;;3.00;1.17;;;19.30;71.90;;;;;;5103542;28;27336;-56
2021/07/06 01:04:23;;;;;;;3.25;1.10;;;19.30;72.10;;;;;;5102594;28;27414;-56
2021/07/06 01:07:08;;;;;;;2.95;1.15;;;19.30;72.10;;;;;;5100444;28;27333;-55
2021/07/06 01:09:52;;;;;;;1.60;1.13;;;19.30;72.00;;;;;;5103551;28;27355;-56
2021/07/06 01:12:37;;;;;;;2.38;0.93;;;19.30;72.10;;;;;;5103183;28;26899;-50
2021/07/06 01:15:23;;;;;;;1.70;0.95;;;19.20;72.00;;;;;;5102738;28;27389;-55
2021/07/06 01:18:13;;;;;;;0.90;0.90;;;19.20;72.00;;;;;;5102936;28;27312;-56
2021/07/06 01:20:58;;;;;;;3.80;1.60;;;19.20;72.00;;;;;;5084681;28;27425;-56
2021/07/06 01:23:43;;;;;;;2.38;1.15;;;19.20;72.00;;;;;;5099643;28;27403;-56
2021/07/06 01:26:28;;;;;;;3.47;0.85;;;19.20;72.10;;;;;;5106941;28;27464;-56
2021/07/06 01:29:13;;;;;;;3.72;1.00;;;19.10;72.10;;;;;;5074322;28;27407;-55
2021/07/06 01:31:57;;;;;;;2.58;0.90;;;19.10;72.10;;;;;;5105723;28;27441;-55
2021/07/06 01:34:42;;;;;;;4.97;0.98;;;19.10;72.20;;;;;;5106337;28;27411;-56
2021/07/06 01:37:27;;;;;;;4.60;1.02;;;19.10;72.10;;;;;;5106409;28;27485;-56
2021/07/06 01:40:13;;;;;;;2.60;0.90;;;19.10;72.10;;;;;;5106586;28;27384;-55
2021/07/06 01:42:57;;;;;;;1.50;1.20;;;19.10;72.20;;;;;;5103447;28;27418;-57
2021/07/06 01:45:42;;;;;;;0.95;0.85;;;19.00;72.90;;;;;;5106708;28;27469;-56
2021/07/06 01:48:27;;;;;;;3.17;1.27;;;19.00;72.20;;;;;;5106832;28;27419;-56
2021/07/06 01:51:12;;;;;;;2.03;1.20;;;19.00;72.20;;;;;;5106639;28;27489;-57
2021/07/06 01:53:56;;;;;;;4.43;1.30;;;19.00;72.30;;;;;;5106306;28;27977;-57
2021/07/06 01:56:43;;;;;;;3.88;1.10;;;19.00;72.40;;;;;;5102026;28;27421;-55
2021/07/06 01:59:27;;;;;;;2.15;1.10;;;19.00;72.50;;;;;;5106247;28;27415;-56
2021/07/06 02:02:12;;;;;;;0.75;0.75;;;18.90;72.40;;;;;;5106270;28;27473;-56
2021/07/06 02:04:56;;;;;;;5.22;1.35;;;18.90;72.40;;;;;;5105789;28;27474;-56
2021/07/06 02:07:42;;;;;;;3.05;0.95;;;18.90;72.40;;;;;;5073606;28;27411;-56
2021/07/06 02:10:27;;;;;;;4.43;1.08;;;18.90;72.40;;;;;;5106107;28;27401;-55
2021/07/06 02:13:16;;;;;;;3.92;1.33;;;18.90;72.50;;;;;;5106062;28;27484;-57
2021/07/06 02:16:02;;;;;;;2.95;1.00;;;18.90;72.40;;;;;;5106000;28;27452;-56
2021/07/06 02:18:47;;;;;;;2.88;1.33;;;18.90;72.40;;;;;;5106162;28;27348;-55
2021/07/06 02:21:32;;;;;;;2.58;1.13;;;18.80;72.30;;;;;;5105342;28;27441;-56
2021/07/06 02:24:16;;;;;;;3.65;0.90;;;18.80;72.30;;;;;;5102874;28;27400;-56
2021/07/06 02:27:01;;;;;;;3.78;1.20;;;18.80;72.30;;;;;;5102439;28;27391;-56
2021/07/06 02:29:45;;;;;;;1.65;1.08;;;18.80;72.40;;;;;;5105285;28;27481;-56
2021/07/06 02:32:30;;;;;;;1.20;0.90;;;18.80;72.40;;;;;;5105866;28;27447;-56
2021/07/06 02:35:15;;;;;;;2.30;1.02;;;18.80;72.40;;;;;;5104440;27;27500;-56
2021/07/06 02:38:01;;;;;;;3.42;1.00;;;18.80;72.40;;;;;;5105190;28;27454;-56
2021/07/06 02:40:45;;;;;;;3.03;1.33;;;18.80;72.40;;;;;;5105283;28;27427;-54
2021/07/06 02:43:30;;;;;;;4.03;1.42;;;18.80;72.40;;;;;;5105540;28;26918;-56
2021/07/06 02:46:15;;;;;;;2.15;1.05;;;18.70;72.40;;;;;;5105602;28;27491;-56
2021/07/06 02:48:59;;;;;;;2.08;1.10;;;18.70;72.30;;;;;;5105345;28;27912;-56
2021/07/06 02:51:44;;;;;;;2.88;1.20;;;18.70;72.40;;;;;;5105300;28;27480;-56
2021/07/06 02:54:28;;;;;;;4.55;1.20;;;18.70;72.50;;;;;;5105578;28;27493;-55
2021/07/06 02:57:33;;;;;;;4.97;0.90;;;18.60;72.30;;;;;;5104790;28;27463;-54
2021/07/06 03:00:22;;;;;;;3.35;1.02;;;18.60;72.30;;;;;;5105524;28;27454;-55
2021/07/06 03:03:08;;;;;;;2.10;0.82;;;18.60;72.30;;;;;;5105078;28;26984;-53
2021/07/06 03:05:53;;;;;;;1.70;1.30;;;18.60;72.30;;;;;;5101808;28;27335;-55
2021/07/06 03:08:37;;;;;;;0.80;0.80;;;18.60;72.30;;;;;;5105069;28;27445;-55
2021/07/06 03:11:23;;;;;;;5.00;1.10;;;18.60;72.30;;;;;;5104417;28;27403;-55
2021/07/06 03:14:08;;;;;;;1.48;1.05;;;18.60;72.40;;;;;;5104356;28;27345;-54
2021/07/06 03:16:52;;;;;;;3.28;1.23;;;18.60;72.30;;;;;;5104756;28;27340;-56
2021/07/06 03:19:37;;;;;;;4.50;1.40;;;18.50;73.10;;;;;;5104950;28;27326;-53
2021/07/06 03:22:22;;;;;;;6.13;1.08;;;18.50;72.30;;;;;;5104911;28;27378;-56
2021/07/06 03:25:08;;;;;;;4.07;1.17;;;18.50;72.30;;;;;;5086191;28;27532;-56
2021/07/06 03:27:53;;;;;;;1.85;1.15;;;18.50;72.20;;;;;;5104745;28;26953;-56
2021/07/06 03:30:38;;;;;;;3.80;1.40;;;18.40;72.20;;;;;;5104141;28;27284;-55
2021/07/06 03:33:23;;;;;;;3.53;1.52;;;18.40;72.20;;;;;;5104630;28;27403;-56
2021/07/06 03:36:08;;;;;;;5.85;1.23;;;18.40;72.30;;;;;;5104496;28;27352;-56
2021/07/06 03:38:53;;;;;;;1.73;1.00;;;18.40;72.30;;;;;;5104881;28;27405;-55
2021/07/06 03:41:37;;;;;;;3.03;1.20;;;18.40;72.30;;;;;;5103286;28;27487;-55
2021/07/06 03:44:22;;;;;;;3.33;1.05;;;18.40;72.40;;;;;;5104251;28;27384;-56
2021/07/06 03:47:07;;;;;;;1.50;1.00;;;18.40;72.40;;;;;;5103549;27;27453;-52
2021/07/06 03:49:51;;;;;;;3.15;1.15;;;18.40;72.60;;;;;;5104131;28;27419;-55
2021/07/06 03:52:36;;;;;;;3.10;1.33;;;18.40;72.70;;;;;;5104527;28;27417;-56
2021/07/06 03:55:20;;;;;;;3.40;1.20;;;18.30;72.70;;;;;;5104522;28;27529;-55
2021/07/06 03:58:05;;;;;;;3.75;1.40;;;18.40;72.80;;;;;;5100006;28;27485;-57
2021/07/06 04:00:50;;;;;;;4.15;1.23;;;18.30;73.00;;;;;;5086087;28;27536;-56
2021/07/06 04:03:34;;;;;;;2.20;1.20;;;18.30;73.00;;;;;;5104089;28;27426;-55
2021/07/06 04:06:18;;;;;;;2.65;1.10;;;18.30;73.10;;;;;;5104360;28;27395;-55
2021/07/06 04:09:03;;;;;;;10.15;1.70;;;18.30;73.10;;;;;;5104274;28;27415;-55
2021/07/06 04:11:47;;;;;;;4.88;1.30;;;18.30;73.30;;;;;;5100056;28;27403;-56
2021/07/06 04:14:32;;;;;;;5.22;1.50;;;18.30;73.30;;;;;;5071314;28;27423;-56
2021/07/06 04:17:17;;;;;;;4.72;1.45;;;18.30;73.40;;;;;;5099910;28;27491;-56
2021/07/06 04:20:03;;;;;;;5.85;1.40;;;18.30;73.40;;;;;;5100636;28;27463;-56
2021/07/06 04:22:48;;;;;;;2.13;1.23;;;18.30;73.50;;;;;;5103930;28;27470;-54
2021/07/06 04:25:35;;;;;;;3.47;1.25;;;18.30;73.70;;;;;;5103024;28;27329;-56
2021/07/06 04:28:20;;;;;;;1.98;1.77;;;18.30;73.90;;;;;;5103806;28;27430;-55
2021/07/06 04:31:04;;;;;;;4.32;2.00;;;18.30;74.10;;;;;;5100059;28;27422;-56
2021/07/06 04:33:49;;;;;;;7.55;1.33;;;18.30;74.10;;;;;;5104067;28;27347;-56
2021/07/06 04:36:33;;;;;;;4.85;1.30;;;18.30;74.20;;;;;;5102851;28;27461;-55
2021/07/06 04:39:18;;;;;;;1.75;1.42;;;18.40;74.40;;;;;;5103205;28;27446;-55
2021/07/06 04:42:03;;;;;;;2.05;1.10;;;18.40;74.60;;;;;;5102863;28;27489;-54
2021/07/06 04:44:48;;;;;;;3.72;1.27;;;18.30;74.70;;;;;;5100547;28;27470;-56
2021/07/06 04:47:33;;;;;;;3.05;1.55;;;18.40;75.10;;;;;;5099506;28;27412;-54
2021/07/06 04:50:18;;;;;;;3.17;1.60;;;18.40;75.40;;;;;;5103584;28;27477;-55
2021/07/06 04:53:03;;;;;;;2.28;1.40;;;18.40;75.90;;;;;;5103737;28;27531;-54
2021/07/06 04:55:47;;;;;;;1.35;1.20;;;18.40;76.10;;;;;;5099544;28;27435;-56
2021/07/06 04:58:32;;;;;;;4.20;1.20;;;18.50;76.40;;;;;;5105055;28;27466;-54
2021/07/06 05:01:17;;;;;;;2.78;1.45;;;18.50;76.70;;;;;;5106312;28;27525;-55
2021/07/06 05:04:03;;;;;;;3.42;1.23;;;18.60;77.10;;;;;;5107242;28;27458;-56
2021/07/06 05:06:47;;;;;;;5.47;1.77;;;18.60;77.20;;;;;;5106240;28;27571;-54
2021/07/06 05:09:32;;;;;;;1.70;1.50;;;18.60;77.30;;;;;;5107237;28;27408;-57
2021/07/06 05:12:17;;;;;;;1.95;1.08;;;18.60;77.50;;;;;;5105970;28;27565;-56
2021/07/06 05:15:04;;;;;;;3.75;1.40;;;18.70;77.70;;;;;;5106147;28;27423;-57
2021/07/06 05:17:49;;;;;;;2.85;1.80;;;18.70;77.80;;;;;;5106652;28;27399;-56
2021/07/06 05:20:33;;;;;;;3.75;1.40;;;18.70;77.80;;;;;;5105883;28;27428;-57
2021/07/06 05:23:18;;;;;;;2.53;1.40;;;18.70;77.90;;;;;;5106942;28;27427;-56
2021/07/06 05:26:02;;;;;;;3.50;1.58;;;18.70;77.90;;;;;;5106650;28;27485;-54
2021/07/06 05:28:48;;;;;;;1.77;1.33;;;18.70;78.00;;;;;;5106826;28;27477;-54
2021/07/06 05:31:32;;;;;;;1.98;1.40;;;18.70;78.00;;;;;;5106523;28;27411;-56
2021/07/06 05:34:18;;;;;;;1.60;1.50;;;18.70;78.00;;;;;;5106751;28;27426;-56
2021/07/06 05:37:02;;;;;;;2.45;1.80;;;18.70;78.20;;;;;;5106146;28;27477;-56
2021/07/06 05:39:48;;;;;;;1.70;1.23;;;18.70;78.30;;;;;;5105728;28;27569;-56
2021/07/06 05:42:36;;;;;;;3.00;1.90;;;18.70;78.30;;;;;;5105485;28;27492;-57
2021/07/06 05:45:23;;;;;;;2.17;1.58;;;18.80;78.60;;;;;;5105697;28;27954;-58
2021/07/06 05:48:17;;;;;;;5.30;2.30;;;18.80;78.80;;;;;;5105716;28;27574;-58
2021/07/06 05:51:01;;;;;;;5.80;1.90;;;18.80;78.90;;;;;;5102513;28;27430;-58
2021/07/06 05:53:50;;;;;;;2.88;1.90;;;18.90;79.20;;;;;;5088111;28;27474;-59
2021/07/06 05:56:38;;;;;;;1.60;1.50;;;19.00;79.40;;;;;;5106148;28;27395;-58
2021/07/06 05:59:24;;;;;;;3.90;1.80;;;19.20;79.40;;;;;;5107180;28;27442;-58
2021/07/06 06:02:10;;;;;;;6.18;2.15;;;19.30;79.50;;;;;;5106193;28;27423;-58
2021/07/06 06:04:55;;;;;;;4.53;2.20;;;19.50;79.50;;;;;;5117882;28;27425;-58
2021/07/06 06:07:40;;;;;;;3.78;2.28;;;19.60;79.50;;;;;;5106853;28;27865;-59
2021/07/06 06:10:25;;;;;;;5.30;2.30;;;19.80;79.50;;;;;;5106064;27;27415;-58
2021/07/06 06:13:10;;;;;;;2.85;1.80;;;19.90;78.00;;;;;;5106825;28;27472;-58
2021/07/06 06:15:58;;;;;;;6.20;2.17;;;20.10;78.20;;;;;;5106922;28;27392;-58
2021/07/06 06:18:42;;;;;;;3.90;2.17;;;20.30;78.50;;;;;;5106582;28;27363;-58
2021/07/06 06:21:28;;;;;;;4.78;1.95;;;20.50;77.50;;;;;;5106695;28;27488;-59
2021/07/06 06:24:16;;;;;;;2.65;1.90;;;20.70;76.70;;;;;;5106973;28;27334;-58
2021/07/06 06:27:02;;;;;;;5.57;2.10;;;20.90;77.10;;;;;;5102697;28;27415;-59
2021/07/06 06:29:46;;;;;;;4.63;2.10;;;21.10;76.90;;;;;;5106657;28;27339;-58
2021/07/06 06:32:33;;;;;;;2.53;1.60;;;21.30;76.80;;;;;;5105954;28;27520;-59
2021/07/06 06:35:18;;;;;;;2.53;1.70;;;21.50;76.30;;;;;;5105835;28;27426;-59
2021/07/06 06:38:03;;;;;;;2.08;1.63;;;21.60;76.20;;;;;;5106083;28;27465;-59
2021/07/06 06:40:50;;;;;;;1.70;1.60;;;21.70;76.70;;;;;;5106030;28;27992;-59
2021/07/06 06:43:35;;;;;;;3.53;1.77;;;21.70;77.00;;;;;;5104953;28;27474;-59
2021/07/06 06:46:23;;;;;;;2.47;1.73;;;21.70;77.80;;;;;;5090935;28;27511;-59
2021/07/06 06:49:08;;;;;;;4.15;1.95;;;21.80;78.00;;;;;;5102171;28;27340;-59
2021/07/06 06:51:56;;;;;;;3.70;1.80;;;21.90;78.30;;;;;;5106072;28;27994;-59
2021/07/06 06:54:41;;;;;;;3.08;1.63;;;22.10;78.00;;;;;;5103033;28;27344;-59
2021/07/06 06:57:26;;;;;;;2.97;1.83;;;22.30;77.60;;;;;;5105909;28;27382;-58
2021/07/06 07:00:10;;;;;;;2.08;1.30;;;22.50;77.60;;;;;;5105884;28;27414;-59
2021/07/06 07:03:16;;;;;;;3.10;1.60;;;22.70;78.00;;;;;;5105878;28;27402;-59
2021/07/06 07:06:03;;;;;;;9.05;2.17;;;22.80;77.90;;;;;;5105756;28;27526;-58
2021/07/06 07:08:48;;;;;;;3.15;1.35;;;22.80;78.70;;;;;;5106136;28;27485;-58
2021/07/06 07:11:32;;;;;;;2.15;1.55;;;22.80;79.50;;;;;;5102469;28;27407;-58
2021/07/06 07:14:17;;;;;;;5.25;2.05;;;22.80;80.10;;;;;;5105730;28;27477;-58
2021/07/06 07:17:03;;;;;;;3.88;1.50;;;22.90;80.50;;;;;;5101736;28;27559;-58
2021/07/06 07:19:47;;;;;;;5.47;1.65;;;23.00;80.90;;;;;;5105732;28;27522;-58
2021/07/06 07:22:33;;;;;;;2.63;1.40;;;23.10;80.50;;;;;;5104706;27;27410;-58
2021/07/06 07:25:17;;;;;;;1.42;1.33;;;23.30;80.00;;;;;;5105551;28;27456;-58
2021/07/06 07:28:03;;;;;;;1.88;1.30;;;23.30;79.90;;;;;;5105013;28;27615;-58
2021/07/06 07:30:48;;;;;;;3.25;1.30;;;23.40;79.90;;;;;;5105526;28;27466;-58
2021/07/06 07:33:33;;;;;;;1.58;1.30;;;23.60;80.20;;;;;;5105448;28;27481;-58
2021/07/06 07:36:17;;;;;;;1.83;1.30;;;23.80;79.70;;;;;;5104874;28;27462;-59
2021/07/06 07:39:02;;;;;;;1.52;1.20;;;24.00;78.70;;;;;;5101311;28;27386;-59
2021/07/06 07:41:46;;;;;;;3.15;1.40;;;24.20;78.30;;;;;;5104875;28;27394;-58
2021/07/06 07:44:34;;;;;;;1.92;1.15;;;24.20;79.00;;;;;;5104566;28;27341;-58
2021/07/06 07:47:19;;;;;;;1.13;1.00;;;24.20;79.40;;;;;;5105187;28;27435;-59
2021/07/06 07:50:05;;;;;;;1.25;1.15;;;24.10;79.30;;;;;;5105445;28;27477;-58
2021/07/06 07:52:51;;;;;;;1.88;1.20;;;24.00;78.70;;;;;;5101457;28;27472;-58
2021/07/06 07:55:36;;;;;;;1.98;1.10;;;24.00;79.70;;;;;;5103970;28;27461;-58
2021/07/06 07:58:20;;;;;;;4.05;1.77;;;23.80;80.10;;;;;;5104754;28;27856;-58
2021/07/06 08:01:05;;;;;;;9.60;3.72;;;23.80;80.90;;;;;;5105256;28;27399;-58
2021/07/06 08:03:50;;;;;;;2.42;1.52;;;23.70;81.70;;;;;;5104559;28;27464;-58
2021/07/06 08:06:34;;;;;;;1.77;1.40;;;23.60;82.60;;;;;;5101654;28;27386;-58
2021/07/06 08:09:19;;;;;;;4.20;1.25;;;23.80;83.70;;;;;;5104849;28;27484;-59
2021/07/06 08:12:04;;;;;;;1.92;1.40;;;24.10;82.40;;;;;;5104794;28;27466;-58
2021/07/06 08:14:52;;;;;;;2.58;1.55;;;24.50;80.20;;;;;;5104845;28;27422;-59
2021/07/06 08:17:36;;;;;;;2.10;1.50;;;25.00;78.40;;;;;;5104487;28;27419;-59
2021/07/06 08:20:21;;;;;;;3.03;1.83;;;25.40;76.50;;;;;;5104947;28;27453;-59
2021/07/06 08:23:05;;;;;;;2.72;1.20;;;25.80;75.10;;;;;;5104398;28;27423;-59
2021/07/06 08:25:50;;;;;;;5.28;1.40;;;26.20;75.30;;;;;;5104693;28;27477;-59
2021/07/06 08:28:35;;;;;;;2.22;1.20;;;26.40;74.30;;;;;;5089907;28;27458;-59
2021/07/06 08:31:20;;;;;;;2.20;1.30;;;26.70;73.60;;;;;;5104477;28;27466;-59
2021/07/06 08:34:04;;;;;;;4.25;1.75;;;27.00;72.90;;;;;;5104036;28;27480;-59
2021/07/06 08:36:49;;;;;;;3.15;1.25;;;27.30;72.30;;;;;;5104757;28;27470;-59
2021/07/06 08:39:33;;;;;;;2.60;1.77;;;27.50;72.00;;;;;;5104423;28;27465;-59
2021/07/06 08:42:19;;;;;;;3.33;1.50;;;27.80;71.20;;;;;;5103686;28;27478;-59
2021/07/06 08:45:05;;;;;;;2.17;1.08;;;28.00;71.30;;;;;;5103870;28;27415;-59
2021/07/06 08:47:51;;;;;;;1.52;1.30;;;28.10;70.90;;;;;;5104428;28;27477;-59
2021/07/06 08:50:36;;;;;;;2.95;1.63;;;28.00;71.20;;;;;;5103987;28;27500;-59
2021/07/06 08:53:21;;;;;;;2.78;1.45;;;27.90;72.20;;;;;;5104509;28;28057;-59
2021/07/06 08:56:05;;;;;;;1.95;1.40;;;27.90;73.10;;;;;;5104502;28;27415;-59
2021/07/06 08:58:52;;;;;;;2.55;1.60;;;28.00;73.50;;;;;;5103924;28;27459;-59
2021/07/06 09:01:36;;;;;;;3.30;1.60;;;28.10;72.80;;;;;;5104211;28;27469;-59
2021/07/06 09:04:21;;;;;;;2.67;1.40;;;28.30;72.60;;;;;;5104190;28;27421;-60
2021/07/06 09:07:07;;;;;;;1.67;1.27;;;28.50;72.40;;;;;;5104438;28;27472;-59
2021/07/06 09:09:52;;;;;;;1.65;1.40;;;28.60;72.10;;;;;;5104436;28;27421;-59
2021/07/06 09:12:37;;;;;;;2.35;1.25;;;28.40;72.00;;;;;;5104065;28;27404;-60
2021/07/06 09:15:30;;;;;;;4.70;1.27;;;28.20;72.20;;;;;;5104023;28;27473;-59
2021/07/06 09:18:16;;;;;;;2.70;1.15;;;27.80;59.60;;;;;;5104001;28;27463;-59
2021/07/06 09:21:09;;;;;;;1.58;1.23;;;27.50;63.50;;;;;;5103329;28;27477;-59
2021/07/06 09:23:55;;;;;;;3.25;1.30;;;27.30;67.80;;;;;;5103856;28;27451;-59
2021/07/06 09:26:39;;;;;;;3.78;1.58;;;27.10;70.30;;;;;;5103130;28;27438;-59
2021/07/06 09:29:24;;;;;;;2.67;1.30;;;27.00;71.10;;;;;;5103026;28;27525;-59
2021/07/06 09:32:09;;;;;;;3.78;1.30;;;26.90;71.40;;;;;;5104110;28;27432;-59
2021/07/06 09:34:53;;;;;;;4.22;1.30;;;26.90;71.40;;;;;;5104058;28;27462;-59
2021/07/06 09:37:45;;;;;;;3.42;1.52;;;27.00;70.90;;;;;;5102816;28;27525;-59
2021/07/06 09:40:37;;;;;;;4.43;1.52;;;27.20;70.50;;;;;;5103438;28;27402;-59
2021/07/06 09:43:26;;;;;;;3.78;1.38;;;27.30;69.70;;;;;;5104004;28;27459;-58
2021/07/06 09:46:10;;;;;;;5.13;1.35;;;27.40;69.20;;;;;;5102866;28;27323;-59
2021/07/06 09:48:59;;;;;;;3.78;1.40;;;27.60;68.90;;;;;;5106580;28;27437;-59
2021/07/06 09:51:44;;;;;;;5.13;1.50;;;27.80;68.60;;;;;;5107037;28;27535;-59
2021/07/06 09:54:31;;;;;;;2.08;1.38;;;27.80;68.40;;;;;;5106376;28;27419;-59
2021/07/06 09:57:33;;;;;;;2.08;1.48;;;27.90;69.00;;;;;;5107153;28;26937;-58
2021/07/06 10:00:19;;;;;;;2.00;1.20;;;27.90;69.40;;;;;;5106937;28;27398;-59
2021/07/06 10:03:04;;;;;;;5.07;1.30;;;27.90;69.70;;;;;;5106834;28;27461;-58
2021/07/06 10:05:49;;;;;;;1.70;1.30;;;27.80;70.10;;;;;;5106224;28;27417;-58
2021/07/06 10:08:34;;;;;;;1.55;1.45;;;27.80;70.00;;;;;;5106895;28;27323;-59
2021/07/06 10:11:19;;;;;;;2.63;1.30;;;27.90;69.80;;;;;;5106327;28;27879;-59
2021/07/06 10:14:04;;;;;;;1.75;1.23;;;28.10;69.70;;;;;;5103492;28;27391;-58
2021/07/06 10:16:49;;;;;;;1.60;1.20;;;28.30;69.80;;;;;;5106178;28;27411;-58
2021/07/06 10:19:34;;;;;;;2.35;1.27;;;28.30;70.00;;;;;;5091520;28;27495;-59
2021/07/06 10:22:19;;;;;;;1.73;1.20;;;28.20;70.20;;;;;;5106208;28;27500;-59
2021/07/06 10:25:06;;;;;;;2.03;1.23;;;28.10;70.10;;;;;;5106496;28;27465;-58
2021/07/06 10:27:52;;;;;;;2.10;1.50;;;27.90;70.00;;;;;;5106853;28;27479;-58
2021/07/06 10:30:44;;;;;;;1.67;1.30;;;27.80;70.70;;;;;;5106732;28;27427;-58
2021/07/06 10:33:30;;;;;;;2.17;1.42;;;27.60;71.10;;;;;;5106403;28;27457;-59
2021/07/06 10:36:16;;;;;;;3.30;1.38;;;27.40;71.50;;;;;;5102389;28;27458;-58
2021/07/06 10:39:02;;;;;;;1.70;1.17;;;27.30;72.70;;;;;;5105688;28;27493;-58
2021/07/06 10:41:54;;;;;;;1.88;0.93;;;27.10;73.20;;;;;;5105908;28;27395;-58
2021/07/06 10:44:42;;;;;;;1.10;1.00;;;27.00;74.60;;;;;;5106459;28;27860;-58
2021/07/06 10:47:39;;;;;;;0.80;0.80;;;26.90;73.60;;;;;;5106163;28;27477;-59
2021/07/06 10:50:30;;;;;;;1.15;0.88;;;26.80;73.40;;;;;;5106469;28;27414;-58
2021/07/06 10:53:22;;;;;;;0.65;0.60;;;26.70;73.50;;;;;;5106076;28;27415;-58
2021/07/06 10:56:10;;;;;;;0.80;0.60;;;26.60;74.10;;;;;;5106067;28;27390;-58
2021/07/06 10:59:04;;;;;;;2.05;0.80;;;26.60;74.10;;;;;;5101956;28;27605;-59
2021/07/06 11:01:57;;;;;;;0.50;0.50;;;26.60;74.50;;;;;;5105656;28;27489;-59
2021/07/06 11:04:55;;;;;;;1.48;0.70;;;26.60;74.20;;;;;;5103003;28;27441;-59
2021/07/06 11:07:49;;;;;;;0.80;0.80;;;26.60;74.00;;;;;;5104923;28;27407;-59
2021/07/06 11:10:42;;;;;;;0.73;0.60;;;26.60;73.60;;;;;;5105127;28;27489;-60
2021/07/06 11:13:33;;;;;;;0.40;0.40;;;26.60;73.70;;;;;;5105971;28;27469;-61
2021/07/06 11:16:43;;;;;;;0.45;0.45;;;26.60;73.30;;;;;;5106067;28;27352;-60
2021/07/06 11:19:41;;;;;;;0.38;0.38;;;26.60;73.80;;;;;;5087971;28;27489;-59
2021/07/06 11:22:56;;;;;;;1.30;0.68;;;26.50;73.80;;;;;;5073976;28;27420;-60
2021/07/06 11:25:48;;;;;;;0.57;0.47;;;26.50;73.60;;;;;;5104928;28;27398;-61
2021/07/06 11:29:03;;;;;;;0.57;0.57;;;26.30;73.60;;;;;;5101794;28;27413;-60
2021/07/06 11:32:11;;;;;;;3.03;0.60;;;26.20;73.80;;;;;;5074118;28;27865;-59
2021/07/06 11:35:00;;;;;;;0.47;0.40;;;26.10;72.90;;;;;;5104336;28;27403;-59
2021/07/06 11:37:53;;;;;;;1.42;0.50;;;26.00;72.90;;;;;;5105591;28;27371;-60
2021/07/06 11:40:47;;;;;;;0.40;0.40;;;25.80;74.40;;;;;;5102078;28;27317;-59
2021/07/06 11:43:39;;;;;;;0.40;0.40;;;25.70;74.80;;;;;;5105210;28;27316;-59
2021/07/06 11:46:32;;;;;;;0.40;0.40;;;25.60;76.00;;;;;;5104800;28;27419;-60
2021/07/06 11:49:27;;;;;;;0.30;0.28;;;25.50;77.00;;;;;;5101356;28;27472;-60
2021/07/06 11:52:24;;;;;;;0.52;0.50;;;25.50;78.30;;;;;;5104474;28;27434;-59
2021/07/06 11:55:13;;;;;;;1.05;0.50;;;25.50;78.30;;;;;;5105525;28;27896;-59
2021/07/06 11:58:08;;;;;;;1.67;0.65;;;25.50;78.30;;;;;;5104444;28;27423;-60
2021/07/06 12:00:56;;;;;;;1.83;0.57;;;25.50;77.90;;;;;;5105168;28;27470;-61
2021/07/06 12:03:47;;;;;;;0.80;0.50;;;25.50;77.90;;;;;;5103659;28;27386;-59
2021/07/06 12:06:35;;;;;;;1.20;0.50;;;25.60;77.00;;;;;;5104512;28;27477;-60
2021/07/06 12:09:23;;;;;;;0.43;0.40;;;25.60;76.40;;;;;;5086191;28;27364;-60
2021/07/06 12:12:14;;;;;;;0.55;0.45;;;25.70;75.80;;;;;;5101243;28;27448;-60
2021/07/06 12:15:05;;;;;;;1.08;0.63;;;25.70;75.10;;;;;;5105153;28;27325;-59
2021/07/06 12:17:52;;;;;;;0.30;0.30;;;25.70;74.50;;;;;;5086924;28;27418;-60
2021/07/06 12:20:41;;;;;;;0.88;0.50;;;25.60;74.50;;;;;;5101071;28;27317;-59
2021/07/06 12:23:30;;;;;;;0.77;0.52;;;25.60;74.90;;;;;;5100850;28;27384;-59
2021/07/06 12:26:21;;;;;;;0.30;0.30;;;25.60;74.40;;;;;;5104031;28;27465;-58
2021/07/06 12:29:13;;;;;;;0.50;0.50;;;25.50;74.40;;;;;;5100836;28;27529;-59
2021/07/06 12:32:11;;;;;;;0.50;0.50;;;25.50;74.50;;;;;;5100622;28;27530;-59
2021/07/06 12:35:06;;;;;;;0.55;0.55;;;25.50;74.90;;;;;;5104617;28;27481;-59
2021/07/06 12:38:08;;;;;;;0.60;0.57;;;25.40;74.90;;;;;;5104448;28;27397;-60
2021/07/06 12:41:19;;;;;;;1.25;0.50;;;25.40;75.20;;;;;;5103967;28;27365;-59
2021/07/06 12:44:10;;;;;;;0.70;0.70;;;25.30;74.70;;;;;;5086767;28;27396;-59
2021/07/06 12:47:24;;;;;;;1.65;0.70;;;25.30;75.60;;;;;;5089917;28;27392;-60
2021/07/06 12:50:18;;;;;;;1.00;0.90;;;25.40;76.30;;;;;;5104401;28;27402;-58
2021/07/06 12:53:09;;;;;;;0.98;0.90;;;25.40;76.90;;;;;;5086298;28;27374;-59
2021/07/06 12:56:07;;;;;;;1.20;1.10;;;25.50;77.20;;;;;;5072294;28;27439;-59
2021/07/06 12:59:24;;;;;;;1.20;1.00;;;25.60;77.40;;;;;;5075680;28;27713;-59
2021/07/06 13:02:41;;;;;;;0.88;0.88;;;25.50;76.60;;;;;;5103867;28;27336;-60
2021/07/06 13:05:35;;;;;;;1.20;1.10;;;25.60;76.90;;;;;;5104254;28;27417;-59
2021/07/06 13:08:39;;;;;;;1.23;1.13;;;25.50;77.20;;;;;;5103699;28;27485;-59
2021/07/06 13:11:31;;;;;;;2.25;1.23;;;25.50;76.10;;;;;;5104265;28;27395;-61
2021/07/06 13:14:31;;;;;;;1.45;1.35;;;25.60;75.90;;;;;;5089260;28;27439;-59
2021/07/06 13:17:27;;;;;;;1.42;1.33;;;25.70;75.10;;;;;;5077306;28;27461;-59
2021/07/06 13:20:19;;;;;;;1.60;1.30;;;25.70;74.10;;;;;;5106184;27;27425;-58
2021/07/06 13:23:08;;;;;;;1.50;1.40;;;25.70;74.80;;;;;;5106976;28;27417;-58
2021/07/06 13:26:05;;;;;;;5.18;1.73;;;25.70;73.20;;;;;;5091242;28;27458;-59
2021/07/06 13:28:55;;;;;;;3.20;2.33;;;25.70;74.20;;;;;;5106739;28;27449;-58
2021/07/06 13:31:50;;;;;;;1.90;1.60;;;25.60;73.50;;;;;;5107457;28;27576;-58
2021/07/06 13:34:39;;;;;;;2.92;2.35;;;25.60;74.80;;;;;;5107465;28;27364;-59
2021/07/06 13:37:34;;;;;;;1.75;1.65;;;25.60;75.30;;;;;;5092595;28;27419;-59
2021/07/06 13:40:25;;;;;;;2.10;1.98;;;25.70;75.60;;;;;;5103573;28;27399;-58
2021/07/06 13:43:19;;;;;;;2.00;1.83;;;25.70;75.60;;;;;;5089594;28;27511;-59
2021/07/06 13:46:17;;;;;;;2.63;1.73;;;25.70;76.00;;;;;;5107344;28;27385;-60
2021/07/06 13:49:21;;;;;;;2.00;1.77;;;25.80;75.90;;;;;;5107171;28;27403;-59
2021/07/06 13:52:13;;;;;;;2.00;1.90;;;25.80;76.60;;;;;;5090033;28;27462;-60
2021/07/06 13:55:04;;;;;;;1.65;1.55;;;25.90;76.90;;;;;;5103806;28;27403;-59
2021/07/06 13:57:57;;;;;;;2.85;1.77;;;25.80;76.40;;;;;;5105463;28;27359;-60
2021/07/06 14:00:47;;;;;;;2.05;1.77;;;25.80;77.20;;;;;;5106271;28;27509;-60
2021/07/06 14:03:42;;;;;;;1.60;1.50;;;25.80;76.20;;;;;;5103913;28;27367;-58
2021/07/06 14:06:37;;;;;;;2.53;1.60;;;25.80;76.20;;;;;;5076050;28;27383;-59
2021/07/06 14:09:51;;;;;;;6.35;1.98;;;25.70;75.70;;;;;;5103940;28;27478;-59
2021/07/06 14:12:45;;;;;;;1.92;1.70;;;25.70;75.40;;;;;;5089654;28;27480;-59
2021/07/06 14:15:35;;;;;;;1.90;1.63;;;25.60;75.80;;;;;;5089079;28;27422;-58
2021/07/06 14:18:24;;;;;;;2.28;1.52;;;25.50;77.10;;;;;;5102805;28;27347;-60
2021/07/06 14:21:17;;;;;;;2.00;1.80;;;25.50;77.30;;;;;;5104708;28;27481;-61
2021/07/06 14:24:15;;;;;;;2.78;1.35;;;25.40;77.60;;;;;;5106790;28;27367;-59
2021/07/06 14:27:04;;;;;;;2.13;1.50;;;25.30;77.90;;;;;;5088726;28;27953;-60
2021/07/06 14:29:59;;;;;;;1.30;1.23;;;25.30;77.70;;;;;;5088902;28;27313;-59
2021/07/06 14:32:49;;;;;;;2.97;1.52;;;25.30;77.40;;;;;;5106651;28;27385;-63
2021/07/06 14:35:37;;;;;;;5.13;1.88;;;25.30;77.40;;;;;;5092264;28;27426;-59